YAYE/AYQ METAR and TAF weather

Enter ICAO airport designator
Station Type Date Time Source
YAYE METAR 2020/10/22 03:00 UTC NOAA

YAYE 220300Z AUTO 31022G34KT 9999 // NCD 36/03 Q1005


Station Type Date Time Source
YAYE Decoded METAR 2020/10/22 03:00 UTC NOAA

Ayers Rock, Australia (YAYE) 25-11S 130-58E
Oct 21, 2020 - 11:00 PM EDT / 2020.10.22 0300 UTC
Wind: from the NW (310 degrees) at 25 MPH (22 KT) gusting to 39 MPH (34 KT):0
Visibility: greater than 7 mile(s):0
Temperature: 96 F (36 C)
Dew Point: 37 F (3 C)
Relative Humidity: 12%
Pressure (altimeter): 29.68 in. Hg (1005 hPa)
ob: YAYE 220300Z AUTO 31022G34KT 9999 // NCD 36/03 Q1005
cycle: 3

Station Type Date Time Source
YAYE TAF UTC NOAA

Error!

Example: see airport list